Terminal Aerodrome Forecast
Issued by NWS King Salmon, AK

Home | Current Version | Previous Version | Text Only | Print | Product List | Glossary On
Versions: 1 2 3 4 5 6 7 8 9 10 11 12 13 14 15 16 17 18 19 20 21 22 23 24 25 26 27 28 29 30 31 32
000
FTAK31 PANC 022206 AAB
TAFAKN
TAF AMD
PAKN 022206Z 0222/0318 22012G20KT P6SM SCT025 OVC035
      TEMPO 0222/0302 5SM -RA BR BKN025 OVC035
     FM030400 22009KT P6SM BKN025 BKN035
     FM030700 21006KT 4SM BR BKN008 OVC020=

USA.gov is the U.S. government's official web portal to all federal, state and local government web resources and services.